createdAt,value
2023-01-09T00:01:25.105Z,99558.91
2023-01-09T00:03:54.484Z,99552.78
2023-01-09T00:06:22.423Z,99546.59
2023-01-09T00:08:50.565Z,99544.19
2023-01-09T00:11:19.976Z,99535.34
2023-01-09T00:13:48.075Z,99537.91
2023-01-09T00:16:16.491Z,99526.22
2023-01-09T00:18:44.528Z,99537.78
2023-01-09T00:21:14.396Z,99532.59
2023-01-09T00:23:42.462Z,99531.22
2023-01-09T00:26:14.867Z,99512.88
2023-01-09T00:28:44.303Z,99504.59
2023-01-09T00:31:13.008Z,99513.28
2023-01-09T00:33:43.781Z,99506.81
2023-01-09T00:36:12.383Z,99512.94
2023-01-09T00:38:41.321Z,99512.00
2023-01-09T00:41:13.092Z,99515.09
2023-01-09T00:43:47.622Z,99517.09
2023-01-09T00:46:16.623Z,99511.34
2023-01-09T00:48:48.879Z,99512.09
2023-01-09T00:51:18.392Z,99503.06
2023-01-09T00:53:46.890Z,99498.38
2023-01-09T00:56:17.841Z,99502.97
2023-01-09T00:58:47.933Z,99508.47
2023-01-09T01:01:15.954Z,99499.69
2023-01-09T01:03:44.272Z,99495.66
2023-01-09T01:06:29.439Z,99504.44
2023-01-09T01:08:57.507Z,99498.63
2023-01-09T01:11:25.600Z,99493.75
2023-01-09T01:13:54.926Z,99500.66
2023-01-09T01:16:22.974Z,99493.53
2023-01-09T01:18:50.838Z,99486.88
2023-01-09T01:21:19.809Z,99492.59
2023-01-09T01:23:47.722Z,99487.91
2023-01-09T01:26:17.476Z,99486.00
2023-01-09T01:28:45.619Z,99492.28
2023-01-09T01:31:19.326Z,99480.47
2023-01-09T01:33:47.574Z,99493.31
2023-01-09T01:36:17.551Z,99476.44
2023-01-09T01:38:46.921Z,99491.50
2023-01-09T01:41:29.259Z,99484.59
2023-01-09T01:43:59.197Z,99479.19
2023-01-09T01:46:29.016Z,99476.75
2023-01-09T01:49:01.268Z,99476.88
2023-01-09T01:51:32.014Z,99466.03
2023-01-09T01:54:04.422Z,99463.19
2023-01-09T01:56:37.739Z,99466.97
2023-01-09T01:59:09.845Z,99457.59
2023-01-09T02:01:42.059Z,99456.53
2023-01-09T02:04:11.011Z,99453.31
2023-01-09T02:06:39.715Z,99444.50
2023-01-09T02:09:08.441Z,99442.09
2023-01-09T02:11:36.380Z,99446.78
2023-01-09T02:14:04.460Z,99451.84
2023-01-09T02:16:48.068Z,99450.78
2023-01-09T02:19:34.103Z,99444.28
2023-01-09T02:22:12.800Z,99444.81
2023-01-09T02:25:03.324Z,99437.09
2023-01-09T02:28:11.028Z,99434.13
2023-01-09T02:30:47.752Z,99427.22
2023-01-09T02:33:40.635Z,99424.97
2023-01-09T02:36:23.739Z,99426.53
2023-01-09T02:39:09.151Z,99420.47
2023-01-09T02:41:43.715Z,99414.09
2023-01-09T02:44:22.568Z,99416.13
2023-01-09T02:47:03.494Z,99412.19
2023-01-09T02:49:32.604Z,99413.25
2023-01-09T02:52:14.787Z,99418.22
2023-01-09T02:54:54.861Z,99413.78
2023-01-09T02:57:31.974Z,99415.22
2023-01-09T03:00:10.813Z,99416.31
2023-01-09T03:02:50.768Z,99415.22
2023-01-09T03:05:27.176Z,99411.72
2023-01-09T03:08:02.185Z,99405.16
2023-01-09T03:10:36.924Z,99409.53
2023-01-09T03:13:06.543Z,99414.25
2023-01-09T03:15:38.208Z,99411.81
2023-01-09T03:18:09.988Z,99410.63
2023-01-09T03:20:39.759Z,99401.13
2023-01-09T03:23:08.866Z,99402.31
2023-01-09T03:25:36.765Z,99397.75
2023-01-09T03:28:07.240Z,99413.94
2023-01-09T03:30:37.730Z,99400.19
2023-01-09T03:33:06.903Z,99407.47
2023-01-09T03:35:34.712Z,99406.28
2023-01-09T03:38:02.500Z,99409.78
2023-01-09T03:40:30.379Z,99408.69
2023-01-09T03:42:58.212Z,99405.19
2023-01-09T03:45:26.058Z,99409.38
2023-01-09T03:47:54.085Z,99407.84
2023-01-09T03:50:23.292Z,99406.53
2023-01-09T03:52:51.110Z,99406.75
2023-01-09T03:55:19.096Z,99395.19
2023-01-09T03:57:46.967Z,99404.47
2023-01-09T04:00:15.558Z,99399.03
2023-01-09T04:02:43.771Z,99391.41
2023-01-09T04:05:12.036Z,99391.94
2023-01-09T04:07:41.289Z,99388.91
2023-01-09T04:10:10.623Z,99392.53
2023-01-09T04:12:38.473Z,99385.38
2023-01-09T04:15:07.470Z,99388.41
2023-01-09T04:17:35.429Z,99386.97
2023-01-09T04:20:03.320Z,99380.78
2023-01-09T04:22:32.037Z,99382.50
2023-01-09T04:25:01.415Z,99382.25
2023-01-09T04:27:29.321Z,99376.34
2023-01-09T04:29:57.272Z,99377.06
2023-01-09T04:32:27.591Z,99370.28
2023-01-09T04:34:55.442Z,99370.88
2023-01-09T04:37:24.464Z,99373.31
2023-01-09T04:39:56.077Z,99373.53
2023-01-09T04:42:25.635Z,99363.16
2023-01-09T04:44:54.189Z,99365.44
2023-01-09T04:47:23.861Z,99373.31
2023-01-09T04:49:52.072Z,99370.16
2023-01-09T04:52:19.953Z,99370.16
2023-01-09T04:54:47.885Z,99372.59
2023-01-09T04:57:15.681Z,99371.00
2023-01-09T04:59:44.929Z,99376.22
2023-01-09T05:02:13.055Z,99376.94
2023-01-09T05:04:41.006Z,99376.22
2023-01-09T05:07:09.001Z,99369.09
2023-01-09T05:09:36.958Z,99366.19
2023-01-09T05:12:05.164Z,99366.19
2023-01-09T05:14:33.171Z,99359.91
2023-01-09T05:17:02.463Z,99365.34
2023-01-09T05:19:30.303Z,99375.59
2023-01-09T05:21:58.151Z,99377.19
2023-01-09T05:24:26.142Z,99365.56
2023-01-09T05:26:53.978Z,99377.06
2023-01-09T05:29:21.857Z,99368.59
2023-01-09T05:31:49.800Z,99365.69
2023-01-09T05:34:19.140Z,99368.34
2023-01-09T05:36:47.032Z,99370.06
2023-01-09T05:39:15.005Z,99360.97
2023-01-09T05:41:42.874Z,99372.22
2023-01-09T05:44:10.719Z,99359.91
2023-01-09T05:46:38.699Z,99374.06
2023-01-09T05:49:06.523Z,99373.41
2023-01-09T05:51:35.795Z,99361.72
2023-01-09T05:54:04.907Z,99369.09
2023-01-09T05:56:32.743Z,99372.47
2023-01-09T05:59:00.563Z,99367.41
2023-01-09T06:01:28.517Z,99364.13
2023-01-09T06:03:56.344Z,99359.66
2023-01-09T06:06:24.753Z,99364.97
2023-01-09T06:08:54.468Z,99363.78
2023-01-09T06:11:22.265Z,99359.53
2023-01-09T06:13:50.238Z,99369.22
2023-01-09T06:16:18.508Z,99367.16
2023-01-09T06:18:46.376Z,99372.09
2023-01-09T06:21:14.259Z,99383.00
2023-01-09T06:23:42.251Z,99389.50
2023-01-09T06:26:11.538Z,99390.50
2023-01-09T06:28:39.351Z,99394.72
2023-01-09T06:31:07.337Z,99389.06
2023-01-09T06:33:35.311Z,99392.59
2023-01-09T06:36:03.191Z,99401.16
2023-01-09T06:38:31.184Z,99404.69
2023-01-09T06:40:59.078Z,99399.69
2023-01-09T06:43:28.309Z,99401.16
2023-01-09T06:45:57.253Z,99411.56
2023-01-09T06:48:25.922Z,99407.06
2023-01-09T06:50:54.044Z,99397.28
2023-01-09T06:53:22.161Z,99410.34
2023-01-09T06:55:50.676Z,99409.38
2023-01-09T06:58:18.923Z,99407.56
2023-01-09T07:00:49.395Z,99410.97
2023-01-09T07:03:19.862Z,99408.28
2023-01-09T07:05:48.153Z,99414.81
2023-01-09T07:08:19.087Z,99414.81
2023-01-09T07:10:46.922Z,99416.16
2023-01-09T07:13:14.780Z,99417.13
2023-01-09T07:15:43.091Z,99428.00
2023-01-09T07:18:12.377Z,99428.34
2023-01-09T07:20:41.294Z,99438.63
2023-01-09T07:23:09.908Z,99439.84
2023-01-09T07:25:37.880Z,99449.03
2023-01-09T07:28:06.640Z,99454.47
2023-01-09T07:30:34.574Z,99460.16
2023-01-09T07:33:04.016Z,99461.09
2023-01-09T07:35:33.741Z,99465.69
2023-01-09T07:38:01.914Z,99469.69
2023-01-09T07:40:29.864Z,99471.81
2023-01-09T07:42:57.759Z,99478.34
2023-01-09T07:45:25.653Z,99480.75
2023-01-09T07:47:53.684Z,99487.03
2023-01-09T07:50:21.485Z,99488.88
2023-01-09T07:52:50.808Z,99488.38
2023-01-09T07:55:18.757Z,99503.34
2023-01-09T07:57:49.863Z,99505.78
2023-01-09T08:00:18.550Z,99506.47
2023-01-09T08:02:46.442Z,99520.97
2023-01-09T08:05:15.927Z,99517.03
2023-01-09T08:07:44.120Z,99514.25
2023-01-09T08:10:13.990Z,99510.88
2023-01-09T08:12:44.209Z,99525.66
2023-01-09T08:15:12.866Z,99516.91
2023-01-09T08:17:42.365Z,99514.00
2023-01-09T08:20:12.176Z,99525.00
2023-01-09T08:22:40.690Z,99535.09
2023-01-09T08:25:11.968Z,99534.97
2023-01-09T08:27:41.619Z,99533.69
2023-01-09T08:30:11.091Z,99533.25
2023-01-09T08:32:41.310Z,99538.06
2023-01-09T08:35:09.823Z,99536.84
2023-01-09T08:37:37.661Z,99544.75
2023-01-09T08:40:06.325Z,99546.72
2023-01-09T08:42:51.493Z,99549.00
2023-01-09T08:45:38.024Z,99551.78
2023-01-09T08:48:06.305Z,99543.31
2023-01-09T08:50:34.210Z,99543.88
2023-01-09T08:53:02.217Z,99545.25
2023-01-09T08:55:31.334Z,99554.41
2023-01-09T08:57:59.142Z,99560.69
2023-01-09T09:00:28.611Z,99555.38
2023-01-09T09:02:58.063Z,99554.59
2023-01-09T09:05:27.387Z,99568.06
2023-01-09T09:07:56.674Z,99577.88
2023-01-09T09:10:28.620Z,99577.41
2023-01-09T09:12:58.214Z,99585.94
2023-01-09T09:15:28.495Z,99586.00
2023-01-09T09:17:57.821Z,99596.41
2023-01-09T09:20:29.122Z,99588.31
2023-01-09T09:22:56.999Z,99592.97
2023-01-09T09:25:25.010Z,99597.94
2023-01-09T09:27:53.154Z,99600.19
2023-01-09T09:30:21.366Z,99598.06
2023-01-09T09:32:50.794Z,99603.03
2023-01-09T09:35:20.999Z,99612.44
2023-01-09T09:37:55.422Z,99605.63
2023-01-09T09:40:36.475Z,99604.41
2023-01-09T09:43:53.580Z,99612.38
2023-01-09T09:46:34.095Z,99613.69
2023-01-09T09:49:11.300Z,99617.53
2023-01-09T09:51:53.834Z,99614.13
2023-01-09T09:54:28.459Z,99619.19
2023-01-09T09:56:59.329Z,99619.78
2023-01-09T09:59:30.766Z,99630.75
2023-01-09T10:02:01.995Z,99623.47
2023-01-09T10:04:35.029Z,99636.00
2023-01-09T10:07:09.507Z,99629.19
2023-01-09T10:09:46.756Z,99628.09
2023-01-09T10:12:28.331Z,99639.22
2023-01-09T10:14:58.343Z,99635.69
2023-01-09T10:17:39.533Z,99638.22
2023-01-09T10:20:31.258Z,99642.28
2023-01-09T10:23:09.732Z,99643.38
2023-01-09T10:25:44.999Z,99643.91
2023-01-09T10:28:32.360Z,99650.38
2023-01-09T10:31:05.681Z,99651.97
2023-01-09T10:33:51.351Z,99657.94
2023-01-09T10:36:50.800Z,99652.50
2023-01-09T10:39:21.970Z,99663.19
2023-01-09T10:41:57.907Z,99664.38
2023-01-09T10:44:34.816Z,99658.03
2023-01-09T10:47:05.384Z,99661.78
2023-01-09T10:49:33.139Z,99660.16
2023-01-09T10:52:15.454Z,99661.84
2023-01-09T10:54:50.408Z,99662.50
2023-01-09T10:57:35.095Z,99652.81
2023-01-09T11:00:03.266Z,99660.59
2023-01-09T11:02:35.358Z,99665.44
2023-01-09T11:05:03.309Z,99663.41
2023-01-09T11:07:38.065Z,99668.78
2023-01-09T11:10:08.518Z,99665.25
2023-01-09T11:12:37.679Z,99668.03
2023-01-09T11:15:29.160Z,99675.16
2023-01-09T11:18:19.172Z,99681.69
2023-01-09T11:20:47.139Z,99664.72
2023-01-09T11:23:40.055Z,99664.03
2023-01-09T11:26:22.071Z,99656.59
2023-01-09T11:29:06.797Z,99658.09
2023-01-09T11:31:35.484Z,99661.50
2023-01-09T11:34:03.816Z,99662.53
2023-01-09T11:36:32.230Z,99661.16
2023-01-09T11:39:02.859Z,99657.69
2023-01-09T11:41:34.547Z,99658.84
2023-01-09T11:44:05.186Z,99656.63
2023-01-09T11:46:38.565Z,99658.03
2023-01-09T11:49:20.979Z,99665.88
2023-01-09T11:52:06.751Z,99660.13
2023-01-09T11:54:39.481Z,99666.91
2023-01-09T11:57:12.299Z,99663.94
2023-01-09T11:59:40.449Z,99672.84
2023-01-09T12:02:42.513Z,99665.16
2023-01-09T12:05:21.376Z,99671.00
2023-01-09T12:08:14.693Z,99668.69
2023-01-09T12:10:59.195Z,99672.41
2023-01-09T12:13:47.033Z,99669.50
2023-01-09T12:16:26.923Z,99669.63
2023-01-09T12:19:09.088Z,99668.16
2023-01-09T12:21:42.695Z,99667.09
2023-01-09T12:24:27.388Z,99668.72
2023-01-09T12:27:06.811Z,99675.69
2023-01-09T12:29:51.387Z,99675.00
2023-01-09T12:32:46.133Z,99683.22
2023-01-09T12:35:30.799Z,99676.53
2023-01-09T12:38:17.540Z,99688.06
2023-01-09T12:41:06.827Z,99679.72
2023-01-09T12:43:49.781Z,99683.84
2023-01-09T12:46:20.443Z,99686.38
2023-01-09T12:49:10.555Z,99679.97
2023-01-09T12:51:43.075Z,99685.75
2023-01-09T12:54:18.217Z,99678.22
2023-01-09T12:56:52.074Z,99679.09
2023-01-09T12:59:31.323Z,99680.03
2023-01-09T13:02:05.791Z,99678.34
2023-01-09T13:04:38.533Z,99683.66
2023-01-09T13:07:12.952Z,99677.53
2023-01-09T13:09:46.881Z,99678.75
2023-01-09T13:12:21.554Z,99678.97
2023-01-09T13:14:56.520Z,99680.31
2023-01-09T13:17:31.063Z,99682.41
2023-01-09T13:19:59.108Z,99685.00
2023-01-09T13:22:29.038Z,99689.69
2023-01-09T13:25:22.215Z,99681.72
2023-01-09T13:27:59.182Z,99678.31
2023-01-09T13:30:46.089Z,99689.06
2023-01-09T13:33:21.059Z,99683.28
2023-01-09T13:35:51.350Z,99684.88
2023-01-09T13:38:22.375Z,99692.63
2023-01-09T13:41:22.916Z,99703.50
2023-01-09T13:43:56.545Z,99696.34
2023-01-09T13:46:36.847Z,99704.59
2023-01-09T13:49:04.976Z,99702.63
2023-01-09T13:51:58.185Z,99697.06
2023-01-09T13:55:01.701Z,99698.28
2023-01-09T13:57:31.703Z,99710.94
2023-01-09T14:00:20.605Z,99705.41
2023-01-09T14:03:06.754Z,99708.69
2023-01-09T14:06:07.849Z,99708.53
2023-01-09T14:08:36.112Z,99709.38
2023-01-09T14:11:05.971Z,99710.75
2023-01-09T14:13:40.038Z,99719.06
2023-01-09T14:16:10.950Z,99725.56
2023-01-09T14:18:49.319Z,99725.50
2023-01-09T14:21:17.577Z,99728.34
2023-01-09T14:23:56.023Z,99734.53
2023-01-09T14:26:27.167Z,99743.59
2023-01-09T14:29:30.166Z,99746.38
2023-01-09T14:32:39.054Z,99749.72
2023-01-09T14:35:16.234Z,99746.22
2023-01-09T14:37:46.917Z,99752.19
2023-01-09T14:40:23.268Z,99755.56
2023-01-09T14:42:53.948Z,99761.41
2023-01-09T14:45:24.543Z,99760.34
2023-01-09T14:47:57.407Z,99764.19
2023-01-09T14:50:33.455Z,99771.41
2023-01-09T14:53:06.549Z,99771.00
2023-01-09T14:55:50.751Z,99775.75
2023-01-09T14:58:23.910Z,99788.53
2023-01-09T15:00:59.680Z,99777.56
2023-01-09T15:03:33.103Z,99786.78
2023-01-09T15:06:02.899Z,99789.97
2023-01-09T15:08:30.901Z,99791.56
2023-01-09T15:10:59.958Z,99801.38
2023-01-09T15:13:35.698Z,99799.91
2023-01-09T15:16:07.044Z,99798.72
2023-01-09T15:18:42.758Z,99794.69
2023-01-09T15:21:25.703Z,99797.97
2023-01-09T15:23:54.226Z,99795.53
2023-01-09T15:26:26.503Z,99799.44
2023-01-09T15:28:55.473Z,99801.78
2023-01-09T15:31:25.210Z,99801.53
2023-01-09T15:33:54.211Z,99810.06
2023-01-09T15:36:26.095Z,99807.41
2023-01-09T15:38:54.757Z,99805.56
2023-01-09T15:41:44.784Z,99809.81
2023-01-09T15:44:16.982Z,99808.97
2023-01-09T15:46:46.541Z,99809.09
2023-01-09T15:49:15.432Z,99818.25
2023-01-09T15:51:46.930Z,99822.53
2023-01-09T15:54:16.437Z,99819.75
2023-01-09T15:56:46.408Z,99817.16
2023-01-09T15:59:25.389Z,99823.41
2023-01-09T16:02:19.858Z,99826.09
2023-01-09T16:04:47.994Z,99835.16
2023-01-09T16:07:21.698Z,99839.56
2023-01-09T16:09:52.906Z,99844.75
2023-01-09T16:12:23.562Z,99843.59
2023-01-09T16:14:55.367Z,99855.78
2023-01-09T16:17:26.756Z,99850.38
2023-01-09T16:19:57.986Z,99865.59
2023-01-09T16:22:30.003Z,99865.59
2023-01-09T16:25:02.092Z,99866.47
2023-01-09T16:27:33.223Z,99869.22
2023-01-09T16:30:02.361Z,99879.41
2023-01-09T16:32:32.370Z,99884.31
2023-01-09T16:35:05.456Z,99890.56
2023-01-09T16:37:36.071Z,99891.44
2023-01-09T16:40:29.917Z,99891.31
2023-01-09T16:43:01.793Z,99891.88
2023-01-09T16:45:32.411Z,99896.88
2023-01-09T16:48:00.971Z,99893.03
2023-01-09T16:50:31.740Z,99900.06
2023-01-09T16:53:03.218Z,99900.28
2023-01-09T16:55:31.037Z,99903.81
2023-01-09T16:57:59.027Z,99904.13
2023-01-09T17:00:27.294Z,99911.78
2023-01-09T17:02:56.609Z,99912.09
2023-01-09T17:05:24.514Z,99910.84
2023-01-09T17:07:52.372Z,99916.69
2023-01-09T17:10:23.632Z,99920.31
2023-01-09T17:12:51.494Z,99914.03
2023-01-09T17:15:19.410Z,99932.34
2023-01-09T17:17:47.299Z,99939.34
2023-01-09T17:20:17.408Z,99932.00
2023-01-09T17:22:45.624Z,99941.47
2023-01-09T17:25:34.903Z,99940.53
2023-01-09T17:28:23.019Z,99938.50
2023-01-09T17:30:51.363Z,99935.28
2023-01-09T17:33:20.558Z,99947.84
2023-01-09T17:35:48.680Z,99945.31
2023-01-09T17:38:17.523Z,99949.59
2023-01-09T17:40:46.123Z,99961.59
2023-01-09T17:43:16.336Z,99962.28
2023-01-09T17:45:44.389Z,99970.16
2023-01-09T17:48:17.659Z,99974.63
2023-01-09T17:50:46.270Z,99983.47
2023-01-09T17:53:14.503Z,99980.06
2023-01-09T17:55:43.238Z,99989.91
2023-01-09T17:58:26.559Z,99994.94
2023-01-09T18:00:54.623Z,99993.38
2023-01-09T18:03:24.356Z,100004.00
2023-01-09T18:05:52.679Z,100000.03
2023-01-09T18:08:20.749Z,100002.59
2023-01-09T18:10:49.090Z,100014.66
2023-01-09T18:13:17.462Z,100013.78
2023-01-09T18:15:48.671Z,100017.31
2023-01-09T18:18:17.172Z,100027.09
2023-01-09T18:20:46.452Z,100030.50
2023-01-09T18:23:18.511Z,100033.56
2023-01-09T18:25:55.340Z,100034.31
2023-01-09T18:28:23.383Z,100043.91
2023-01-09T18:30:52.985Z,100048.88
2023-01-09T18:33:20.817Z,100060.41
2023-01-09T18:35:48.834Z,100054.97
2023-01-09T18:38:16.736Z,100055.81
2023-01-09T18:40:44.885Z,100072.31
2023-01-09T18:43:14.290Z,100067.94
2023-01-09T18:45:42.207Z,100074.44
2023-01-09T18:48:12.715Z,100076.25
2023-01-09T18:50:40.594Z,100087.69
2023-01-09T18:53:08.560Z,100088.66
2023-01-09T18:55:37.573Z,100099.09
2023-01-09T18:58:05.797Z,100096.44
2023-01-09T19:00:33.675Z,100099.97
2023-01-09T19:03:01.618Z,100104.53
2023-01-09T19:05:33.373Z,100109.22
2023-01-09T19:08:01.409Z,100112.72
2023-01-09T19:10:29.239Z,100119.19
2023-01-09T19:12:57.255Z,100124.81
2023-01-09T19:15:25.068Z,100131.31
2023-01-09T19:17:53.011Z,100131.06
2023-01-09T19:20:20.971Z,100128.50
2023-01-09T19:22:50.391Z,100144.47
2023-01-09T19:25:18.631Z,100151.78
2023-01-09T19:27:46.572Z,100154.03
2023-01-09T19:30:14.760Z,100155.66
2023-01-09T19:32:42.752Z,100161.31
2023-01-09T19:35:10.871Z,100170.31
2023-01-09T19:37:38.814Z,100180.34
2023-01-09T19:40:09.222Z,100184.34
2023-01-09T19:42:37.064Z,100189.47
2023-01-09T19:45:05.724Z,100187.34
2023-01-09T19:47:36.095Z,100187.63
2023-01-09T19:50:05.253Z,100196.34
2023-01-09T19:52:33.218Z,100193.28
2023-01-09T19:55:01.279Z,100201.28
2023-01-09T19:57:31.038Z,100195.97
2023-01-09T19:59:59.129Z,100208.28
2023-01-09T20:02:28.100Z,100201.28
2023-01-09T20:04:56.167Z,100204.03
2023-01-09T20:07:24.141Z,100209.38
2023-01-09T20:09:52.031Z,100211.34
2023-01-09T20:12:20.265Z,100236.16
2023-01-09T20:14:49.652Z,100239.03
2023-01-09T20:17:17.939Z,100241.84
2023-01-09T20:19:46.373Z,100252.00
2023-01-09T20:22:14.881Z,100252.44
2023-01-09T20:24:42.989Z,100256.56
2023-01-09T20:27:11.145Z,100260.19
2023-01-09T20:29:39.427Z,100254.13
2023-01-09T20:32:09.952Z,100264.22
2023-01-09T20:34:38.017Z,100271.97
2023-01-09T20:37:05.937Z,100272.88
2023-01-09T20:39:33.871Z,100273.31
2023-01-09T20:42:01.928Z,100271.63
2023-01-09T20:44:30.096Z,100281.31
2023-01-09T20:46:57.983Z,100284.72
2023-01-09T20:49:27.374Z,100286.63
2023-01-09T20:51:55.403Z,100291.84
2023-01-09T20:54:23.586Z,100291.94
2023-01-09T20:56:52.208Z,100305.81
2023-01-09T20:59:22.238Z,100303.44
2023-01-09T21:01:50.604Z,100313.44
2023-01-09T21:04:19.092Z,100304.09
2023-01-09T21:06:50.150Z,100313.59
2023-01-09T21:09:18.723Z,100313.31
2023-01-09T21:11:46.560Z,100318.25
2023-01-09T21:14:14.520Z,100317.34
2023-01-09T21:16:43.978Z,100317.88
2023-01-09T21:19:13.445Z,100327.09
2023-01-09T21:21:41.345Z,100329.47
2023-01-09T21:24:10.807Z,100332.06
2023-01-09T21:26:38.619Z,100339.81
2023-01-09T21:29:08.376Z,100341.72
2023-01-09T21:31:36.333Z,100346.28
2023-01-09T21:34:06.365Z,100345.53
2023-01-09T21:36:35.312Z,100351.97
2023-01-09T21:39:04.911Z,100361.13
2023-01-09T21:41:52.897Z,100363.00
2023-01-09T21:44:38.233Z,100378.47
2023-01-09T21:47:06.152Z,100379.59
2023-01-09T21:49:35.938Z,100380.47
2023-01-09T21:52:05.161Z,100392.91
2023-01-09T21:54:33.857Z,100400.03
2023-01-09T21:57:04.047Z,100393.66
2023-01-09T21:59:32.025Z,100406.38
2023-01-09T22:02:00.419Z,100410.13
2023-01-09T22:04:30.507Z,100412.47
2023-01-09T22:06:58.735Z,100419.63
2023-01-09T22:09:26.849Z,100418.28
2023-01-09T22:11:54.866Z,100431.97
2023-01-09T22:14:24.996Z,100438.25
2023-01-09T22:16:52.963Z,100435.75
2023-01-09T22:19:21.198Z,100436.72
2023-01-09T22:21:49.655Z,100436.97
2023-01-09T22:24:19.836Z,100439.06
2023-01-09T22:26:48.282Z,100440.13
2023-01-09T22:29:17.118Z,100444.13
2023-01-09T22:31:46.441Z,100446.69
2023-01-09T22:34:15.942Z,100457.88
2023-01-09T22:36:44.443Z,100460.75
2023-01-09T22:39:14.262Z,100470.09
2023-01-09T22:41:42.701Z,100470.50
2023-01-09T22:44:11.063Z,100476.84
2023-01-09T22:46:39.739Z,100485.84
2023-01-09T22:49:12.127Z,100488.13
2023-01-09T22:51:40.132Z,100494.91
2023-01-09T22:54:08.022Z,100492.25
2023-01-09T22:56:36.296Z,100502.09
2023-01-09T22:59:04.217Z,100504.41
2023-01-09T23:01:32.040Z,100514.72
2023-01-09T23:04:00.017Z,100512.25
2023-01-09T23:06:30.450Z,100521.94
2023-01-09T23:08:58.343Z,100525.53
2023-01-09T23:11:46.669Z,100523.38
2023-01-09T23:14:14.608Z,100520.47
2023-01-09T23:16:42.842Z,100533.25
2023-01-09T23:19:13.022Z,100536.09
2023-01-09T23:21:42.736Z,100548.75
2023-01-09T23:24:11.556Z,100546.97
2023-01-09T23:26:39.945Z,100549.97
2023-01-09T23:29:08.488Z,100549.41
2023-01-09T23:31:36.965Z,100558.47
2023-01-09T23:34:08.241Z,100560.34
2023-01-09T23:36:36.633Z,100563.31
2023-01-09T23:39:09.042Z,100563.34
2023-01-09T23:41:54.868Z,100579.03
2023-01-09T23:44:22.891Z,100584.97
2023-01-09T23:46:50.776Z,100584.72
2023-01-09T23:49:18.887Z,100587.38
2023-01-09T23:51:47.097Z,100589.59
2023-01-09T23:54:17.389Z,100603.81
2023-01-09T23:56:45.331Z,100600.56
2023-01-09T23:59:15.058Z,100606.56
